Time;durP1;ratioP1;P1;durP2;ratioP2;P2;SDS_P1;SDS_P2;PMS_P1;PMS_P2;Temp;Humidity;BMP_temperature;BMP_pressure;BME280_temperature;BME280_humidity;BME280_pressure;Samples;Min_cycle;Max_cycle;Signal;HPM_P1;HPM_P2
2022/11/22 00:02:02;;;;;;;54.03;27.03;;;0.20;1.00;;;;;;5008391;28;20198;-77
2022/11/22 00:04:28;;;;;;;53.37;26.03;;;0.40;1.00;;;;;;5005635;28;20207;-78
2022/11/22 00:06:53;;;;;;;54.63;27.53;;;0.30;99.90;;;;;;5023237;28;20346;-77
2022/11/22 00:09:19;;;;;;;57.07;27.50;;;0.10;99.90;;;;;;5008959;28;20180;-77
2022/11/22 00:11:44;;;;;;;60.70;29.50;;;0.10;99.90;;;;;;5008637;28;20686;-77
2022/11/22 00:14:10;;;;;;;64.63;30.67;;;0.10;1.00;;;;;;5007777;28;20195;-79
2022/11/22 00:16:36;;;;;;;65.47;30.97;;;0.10;1.00;;;;;;5008072;28;20278;-77
2022/11/22 00:19:01;;;;;;;68.67;31.20;;;0.10;1.00;;;;;;5008339;28;20195;-79
2022/11/22 00:21:27;;;;;;;68.00;30.50;;;0.00;1.00;;;;;;5007783;28;20269;-79
2022/11/22 00:23:56;;;;;;;63.93;31.17;;;0.10;1.00;;;;;;5008208;28;20270;-79
2022/11/22 00:26:23;;;;;;;62.40;30.53;;;0.10;1.00;;;;;;5005313;28;20354;-77
2022/11/22 00:28:49;;;;;;;60.80;29.90;;;0.10;1.00;;;;;;5008617;28;20183;-77
2022/11/22 00:31:14;;;;;;;65.43;32.30;;;0.10;1.00;;;;;;5006889;28;20601;-78
2022/11/22 00:33:40;;;;;;;68.67;31.10;;;0.10;1.00;;;;;;5009078;28;20187;-79
2022/11/22 00:36:06;;;;;;;66.03;30.60;;;0.00;1.00;;;;;;5006711;28;20265;-78
2022/11/22 00:38:32;;;;;;;65.20;30.50;;;0.10;1.00;;;;;;5006778;28;20175;-77
2022/11/22 00:40:57;;;;;;;66.90;29.83;;;0.00;1.00;;;;;;5008390;28;20715;-77
2022/11/22 00:43:23;;;;;;;66.20;29.60;;;0.00;1.00;;;;;;5007187;28;20215;-78
2022/11/22 00:45:48;;;;;;;71.60;31.00;;;-0.10;1.00;;;;;;5007609;28;20204;-77
2022/11/22 00:48:14;;;;;;;71.30;30.00;;;0.00;1.00;;;;;;5007981;28;20222;-80
2022/11/22 00:50:39;;;;;;;59.87;28.90;;;0.00;1.00;;;;;;5007765;28;20322;-78
2022/11/22 00:53:05;;;;;;;66.47;29.60;;;0.00;1.00;;;;;;5008167;28;20195;-80
2022/11/22 00:55:31;;;;;;;61.50;27.70;;;0.00;1.00;;;;;;5007586;28;20273;-78
2022/11/22 00:57:56;;;;;;;66.33;29.37;;;0.00;1.00;;;;;;5008601;28;20886;-80
2022/11/22 01:00:22;;;;;;;64.97;29.70;;;0.00;1.00;;;;;;5008211;28;20223;-75
2022/11/22 01:02:47;;;;;;;65.87;29.70;;;0.00;1.00;;;;;;5007642;28;20187;-78
2022/11/22 01:05:13;;;;;;;62.23;28.00;;;0.00;1.00;;;;;;5006992;28;20196;-78
2022/11/22 01:07:39;;;;;;;61.70;27.77;;;0.10;1.00;;;;;;5008725;28;20862;-79
2022/11/22 01:10:05;;;;;;;59.10;27.90;;;0.10;1.00;;;;;;5008871;28;20191;-79
2022/11/22 01:12:31;;;;;;;59.67;28.10;;;0.10;1.00;;;;;;5009062;28;20188;-78
2022/11/22 01:14:56;;;;;;;60.93;27.77;;;0.10;1.00;;;;;;5007628;28;20235;-78
2022/11/22 01:17:22;;;;;;;60.70;27.10;;;0.10;1.00;;;;;;5008969;28;20234;-79
2022/11/22 01:19:48;;;;;;;58.63;28.47;;;-0.30;1.00;;;;;;5008672;28;20250;-76
2022/11/22 01:22:13;;;;;;;56.03;26.80;;;0.10;1.00;;;;;;5008953;28;20211;-77
2022/11/22 01:24:39;;;;;;;56.40;27.70;;;0.10;1.00;;;;;;5008407;28;20215;-78
2022/11/22 01:27:04;;;;;;;60.20;28.23;;;0.10;1.00;;;;;;5007061;28;20188;-78
2022/11/22 01:29:30;;;;;;;61.63;27.83;;;0.20;1.00;;;;;;5008643;28;20657;-80
2022/11/22 01:31:55;;;;;;;62.13;28.23;;;0.10;1.00;;;;;;5007681;28;20249;-77
2022/11/22 01:34:21;;;;;;;57.57;27.57;;;0.10;1.00;;;;;;5007254;28;20191;-79
2022/11/22 01:36:47;;;;;;;56.40;26.50;;;0.00;1.00;;;;;;5007703;28;20254;-79
2022/11/22 01:39:14;;;;;;;61.90;27.40;;;0.10;1.00;;;;;;5000656;28;20215;-77
2022/11/22 01:41:40;;;;;;;55.67;26.70;;;0.00;1.00;;;;;;5007873;28;20196;-78
2022/11/22 01:44:20;;;;;;;54.67;25.77;;;0.10;1.00;;;;;;5007406;28;20359;-76
2022/11/22 01:46:51;;;;;;;60.00;27.47;;;0.10;1.00;;;;;;5023752;28;20184;-77
2022/11/22 01:49:22;;;;;;;59.47;26.63;;;0.00;1.00;;;;;;5008741;28;20579;-77
2022/11/22 01:51:51;;;;;;;58.20;27.47;;;0.10;1.00;;;;;;5009578;28;20730;-78
2022/11/22 01:54:22;;;;;;;57.33;26.60;;;0.10;1.00;;;;;;5008825;28;20680;-77
2022/11/22 01:56:53;;;;;;;57.97;27.57;;;0.10;1.00;;;;;;5009467;28;20184;-78
2022/11/22 01:59:23;;;;;;;57.80;27.73;;;0.10;1.00;;;;;;5008220;28;20207;-79
2022/11/22 02:01:49;;;;;;;59.07;27.40;;;0.10;1.00;;;;;;5008623;28;20176;-79
2022/11/22 02:04:16;;;;;;;63.20;27.27;;;0.10;1.00;;;;;;5010141;28;20211;-77
2022/11/22 02:06:56;;;;;;;55.90;26.57;;;0.20;1.00;;;;;;5010103;28;20319;-80
2022/11/22 02:09:22;;;;;;;58.43;27.63;;;0.10;1.00;;;;;;5009526;28;20318;-78
2022/11/22 02:11:51;;;;;;;56.77;27.27;;;0.10;1.00;;;;;;5011078;28;20206;-79
2022/11/22 02:14:22;;;;;;;63.13;28.90;;;0.20;1.00;;;;;;5013990;28;20201;-77
2022/11/22 02:16:48;;;;;;;57.47;26.63;;;0.20;1.00;;;;;;5015018;28;20191;-77
2022/11/22 02:19:25;;;;;;;62.50;27.20;;;0.20;1.00;;;;;;5003537;28;20194;-80
2022/11/22 02:21:58;;;;;;;57.73;27.53;;;0.10;1.00;;;;;;5026761;28;20201;-80
2022/11/22 02:24:45;;;;;;;52.83;26.23;;;0.20;1.00;;;;;;5009763;28;20256;-81
2022/11/22 02:27:10;;;;;;;56.53;27.60;;;0.30;1.00;;;;;;5010199;28;20188;-77
2022/11/22 02:29:37;;;;;;;57.53;27.23;;;0.30;1.00;;;;;;5010161;28;20190;-81
2022/11/22 02:32:03;;;;;;;56.30;26.63;;;0.30;1.00;;;;;;5009720;28;20188;-78
2022/11/22 02:34:28;;;;;;;60.53;27.27;;;0.30;99.90;;;;;;5026718;28;20679;-80
2022/11/22 02:36:54;;;;;;;56.13;27.73;;;0.30;1.00;;;;;;5000745;28;20196;-80
2022/11/22 02:39:25;;;;;;;61.50;29.23;;;0.30;1.00;;;;;;5012778;28;20193;-78
2022/11/22 02:41:52;;;;;;;61.30;27.57;;;0.30;1.00;;;;;;5012555;28;20188;-80
2022/11/22 02:44:19;;;;;;;55.30;26.07;;;0.20;1.00;;;;;;5011313;28;20211;-80
2022/11/22 02:46:46;;;;;;;58.30;27.50;;;0.30;1.00;;;;;;5011811;28;20180;-80
2022/11/22 02:49:14;;;;;;;53.40;27.63;;;0.20;1.00;;;;;;5026851;28;20241;-78
2022/11/22 02:51:40;;;;;;;57.40;27.60;;;0.30;1.00;;;;;;5009587;28;20191;-76
2022/11/22 02:54:05;;;;;;;57.23;26.33;;;0.20;1.00;;;;;;5013443;28;20195;-77
2022/11/22 02:56:31;;;;;;;59.83;28.10;;;0.30;1.00;;;;;;5011212;28;20210;-80
2022/11/22 02:58:57;;;;;;;56.60;26.80;;;0.30;1.00;;;;;;5012254;28;21059;-76
2022/11/22 03:01:22;;;;;;;58.37;28.30;;;0.30;1.00;;;;;;5020088;28;20194;-79
2022/11/22 03:03:48;;;;;;;56.27;25.93;;;0.30;1.00;;;;;;5018883;28;20219;-76
2022/11/22 03:06:13;;;;;;;56.37;26.40;;;0.30;1.00;;;;;;5015721;28;20219;-79
2022/11/22 03:08:39;;;;;;;55.63;25.67;;;0.20;1.00;;;;;;5014123;28;20905;-78
2022/11/22 03:11:05;;;;;;;49.90;26.83;;;0.30;1.00;;;;;;5018337;28;20203;-75
2022/11/22 03:13:30;;;;;;;47.50;24.60;;;0.30;1.00;;;;;;5028027;28;20218;-74
2022/11/22 03:15:56;;;;;;;48.13;24.60;;;0.30;1.00;;;;;;5028257;28;20274;-77
2022/11/22 03:18:22;;;;;;;55.00;26.60;;;0.20;1.00;;;;;;5027745;28;20167;-76
2022/11/22 03:20:47;;;;;;;51.37;26.27;;;0.30;1.00;;;;;;5027399;28;20251;-76
2022/11/22 03:23:13;;;;;;;52.70;25.43;;;0.30;1.00;;;;;;5021690;28;20191;-78
2022/11/22 03:25:39;;;;;;;51.53;25.47;;;0.40;1.00;;;;;;5021701;28;20207;-76
2022/11/22 03:28:05;;;;;;;54.13;26.03;;;0.40;1.00;;;;;;5024218;28;20188;-76
2022/11/22 03:30:31;;;;;;;51.77;27.00;;;0.30;1.00;;;;;;5027114;28;20355;-76
2022/11/22 03:32:56;;;;;;;51.50;25.10;;;0.40;1.00;;;;;;5029593;28;20191;-77
2022/11/22 03:35:22;;;;;;;53.03;26.40;;;0.30;1.00;;;;;;5027188;28;20465;-76
2022/11/22 03:37:47;;;;;;;50.67;25.67;;;0.40;1.00;;;;;;5025845;28;20194;-79
2022/11/22 03:40:13;;;;;;;52.23;24.97;;;0.30;1.00;;;;;;5004463;28;20284;-80
2022/11/22 03:42:38;;;;;;;51.87;27.07;;;0.40;1.00;;;;;;5013486;28;20187;-78
2022/11/22 03:45:05;;;;;;;53.00;26.97;;;0.40;1.00;;;;;;5011506;28;20216;-80
2022/11/22 03:47:31;;;;;;;55.70;28.10;;;0.40;1.00;;;;;;5011266;28;20203;-78
2022/11/22 03:49:56;;;;;;;57.70;26.60;;;0.40;1.00;;;;;;5010979;28;20218;-78
2022/11/22 03:52:22;;;;;;;52.57;26.80;;;0.40;1.00;;;;;;5011383;28;20187;-80
2022/11/22 03:54:48;;;;;;;54.87;27.17;;;0.40;1.00;;;;;;5010577;28;20219;-80
2022/11/22 03:57:15;;;;;;;48.60;26.17;;;0.50;1.00;;;;;;5012148;28;20558;-78
2022/11/22 03:59:41;;;;;;;51.50;25.80;;;0.50;99.90;;;;;;5011341;28;20184;-79
2022/11/22 04:02:07;;;;;;;47.60;26.47;;;0.50;99.90;;;;;;5011233;28;20192;-80
2022/11/22 04:04:32;;;;;;;53.90;25.77;;;0.60;99.90;;;;;;5011568;28;20218;-79
2022/11/22 04:06:58;;;;;;;45.93;25.63;;;0.60;99.90;;;;;;5009979;28;20187;-77
2022/11/22 04:09:23;;;;;;;49.93;25.83;;;0.60;99.90;;;;;;5009685;28;20306;-78
2022/11/22 04:11:49;;;;;;;50.57;25.37;;;0.60;99.90;;;;;;5009292;28;20654;-81
2022/11/22 04:16:58;;;;;;;51.37;27.30;;;0.60;99.90;;;;;;5011216;28;20203;-77
2022/11/22 04:19:24;;;;;;;47.80;27.27;;;0.60;99.90;;;;;;5010671;28;20179;-77
2022/11/22 04:21:50;;;;;;;47.17;25.47;;;0.60;99.90;;;;;;5011324;28;20332;-80
2022/11/22 04:26:59;;;;;;;46.37;26.43;;;0.60;99.90;;;;;;5009299;28;20199;-80
2022/11/22 04:29:25;;;;;;;52.97;28.30;;;0.60;99.90;;;;;;5011065;28;20183;-79
2022/11/22 04:34:36;;;;;;;49.70;27.10;;;0.70;99.90;;;;;;5010063;28;20194;-77
2022/11/22 04:37:02;;;;;;;45.27;26.67;;;1.00;99.90;;;;;;5008982;28;20190;-77
2022/11/22 04:39:28;;;;;;;46.10;25.33;;;0.80;99.90;;;;;;5009469;28;20723;-78
2022/11/22 04:44:39;;;;;;;46.17;26.30;;;0.60;99.90;;;;;;5009421;28;20221;-81
2022/11/22 04:47:57;;;;;;;45.47;25.60;;;0.70;99.90;;;;;;5009955;28;20266;-78
2022/11/22 04:52:52;;;;;;;43.33;26.60;;;0.80;99.90;;;;;;5008618;28;20618;-81
2022/11/22 04:52:52;;;;;;;42.10;25.50;;;0.70;99.90;;;;;;5010071;28;20180;-80
2022/11/22 04:55:18;;;;;;;43.77;28.03;;;0.70;99.90;;;;;;5007780;28;20207;-81
2022/11/22 04:57:43;;;;;;;45.77;27.30;;;0.70;99.90;;;;;;5005386;28;20187;-78
2022/11/22 05:00:09;;;;;;;45.77;26.80;;;0.70;99.90;;;;;;5009079;28;20184;-78
2022/11/22 05:02:35;;;;;;;43.23;25.90;;;0.60;99.90;;;;;;5010003;28;20236;-79
2022/11/22 05:05:00;;;;;;;41.90;25.67;;;0.60;99.90;;;;;;5009574;28;20254;-79
2022/11/22 05:07:26;;;;;;;42.73;26.10;;;0.70;99.90;;;;;;5009860;28;20180;-78
2022/11/22 05:09:52;;;;;;;40.70;25.30;;;0.70;99.90;;;;;;5010141;28;20661;-80
2022/11/22 05:12:20;;;;;;;38.63;25.53;;;0.70;99.90;;;;;;5011157;28;20187;-77
2022/11/22 05:14:46;;;;;;;40.87;25.47;;;0.80;99.90;;;;;;5026862;28;20219;-81
2022/11/22 05:17:11;;;;;;;38.90;24.10;;;0.80;99.90;;;;;;5007727;28;20200;-79
2022/11/22 05:19:37;;;;;;;37.47;23.30;;;0.80;99.90;;;;;;5006149;28;20191;-78
2022/11/22 05:22:02;;;;;;;40.13;25.07;;;1.50;99.90;;;;;;5007197;28;20199;-80
2022/11/22 05:24:28;;;;;;;36.93;23.80;;;0.90;99.90;;;;;;5006238;28;20682;-77
2022/11/22 05:26:53;;;;;;;36.03;23.07;;;0.80;99.90;;;;;;5005471;28;20192;-78
2022/11/22 05:29:19;;;;;;;39.23;23.80;;;0.80;99.90;;;;;;5021975;28;20195;-80
2022/11/22 05:31:45;;;;;;;39.67;23.17;;;0.80;99.90;;;;;;5007297;28;20302;-77
2022/11/22 05:34:10;;;;;;;39.50;25.73;;;0.80;99.90;;;;;;5005978;28;20199;-79
2022/11/22 05:36:37;;;;;;;36.70;23.90;;;0.80;99.90;;;;;;5006577;28;20235;-77
2022/11/22 05:39:03;;;;;;;38.73;24.77;;;0.80;99.90;;;;;;5005481;28;20195;-79
2022/11/22 05:41:28;;;;;;;38.53;24.80;;;0.70;99.90;;;;;;5005807;28;20641;-78
2022/11/22 05:43:55;;;;;;;35.57;23.63;;;0.80;99.90;;;;;;5005253;28;20635;-77
2022/11/22 05:46:25;;;;;;;37.93;24.63;;;0.80;99.90;;;;;;5004534;28;20262;-76
2022/11/22 05:48:52;;;;;;;37.73;23.90;;;0.80;99.90;;;;;;5007127;28;20210;-77
2022/11/22 05:51:20;;;;;;;35.80;23.57;;;0.70;99.90;;;;;;5005779;28;20191;-80
2022/11/22 05:53:46;;;;;;;37.67;23.03;;;0.80;99.90;;;;;;5005394;28;20218;-78
2022/11/22 05:56:18;;;;;;;37.17;23.23;;;0.80;99.90;;;;;;5005996;28;20282;-80
2022/11/22 05:58:44;;;;;;;38.63;24.23;;;0.90;99.90;;;;;;5006274;28;20194;-81
2022/11/22 06:01:12;;;;;;;37.63;23.43;;;0.80;99.90;;;;;;5004355;28;20938;-80
2022/11/22 06:03:38;;;;;;;35.53;22.30;;;0.70;99.90;;;;;;5005105;28;20222;-78
2022/11/22 06:06:05;;;;;;;35.67;24.00;;;0.70;99.90;;;;;;5003143;28;20203;-81
2022/11/22 06:08:32;;;;;;;35.53;22.90;;;0.90;99.90;;;;;;5003508;28;20183;-80
2022/11/22 06:11:12;;;;;;;37.33;22.23;;;0.80;99.90;;;;;;5004087;28;20230;-77
2022/11/22 06:13:39;;;;;;;35.17;23.00;;;0.80;99.90;;;;;;5004304;28;20688;-81
2022/11/22 06:16:07;;;;;;;32.93;21.97;;;1.40;99.90;;;;;;5005237;28;20256;-77
2022/11/22 06:18:33;;;;;;;33.63;21.43;;;0.80;99.90;;;;;;5005893;28;20191;-79
2022/11/22 06:21:00;;;;;;;32.23;20.83;;;0.90;99.90;;;;;;5004084;28;20196;-78
2022/11/22 06:23:27;;;;;;;31.00;19.93;;;0.90;99.90;;;;;;5004006;28;20217;-79
2022/11/22 06:26:01;;;;;;;31.90;20.73;;;0.90;99.90;;;;;;5002713;28;20286;-77
2022/11/22 06:28:31;;;;;;;35.03;19.93;;;0.90;99.90;;;;;;5005296;28;20180;-78
2022/11/22 06:31:17;;;;;;;33.17;20.87;;;0.90;99.90;;;;;;5005529;28;20211;-79
2022/11/22 06:33:43;;;;;;;31.17;20.50;;;0.80;99.90;;;;;;5005413;28;20246;-81
2022/11/22 06:36:14;;;;;;;28.87;19.50;;;0.80;99.90;;;;;;5003345;28;20215;-76
2022/11/22 06:38:41;;;;;;;30.80;20.27;;;0.80;1.00;;;;;;5019706;28;20203;-80
2022/11/22 06:41:09;;;;;;;31.23;20.07;;;0.80;1.00;;;;;;5003322;28;20192;-77
2022/11/22 06:43:37;;;;;;;33.30;21.10;;;0.90;1.00;;;;;;5020076;28;20204;-79
2022/11/22 06:46:04;;;;;;;32.93;20.93;;;0.90;1.00;;;;;;5005371;28;20208;-77
2022/11/22 06:48:32;;;;;;;32.97;21.63;;;0.80;1.00;;;;;;5004528;28;20222;-76
2022/11/22 06:51:09;;;;;;;29.03;19.70;;;0.80;1.00;;;;;;5006551;28;20200;-81
2022/11/22 06:53:35;;;;;;;32.70;20.77;;;0.80;1.00;;;;;;5006939;28;20653;-79
2022/11/22 06:56:04;;;;;;;33.87;20.60;;;0.90;1.00;;;;;;5004202;28;20249;-81
2022/11/22 06:58:30;;;;;;;29.60;19.20;;;0.90;1.00;;;;;;5005046;28;20673;-77
2022/11/22 07:01:07;;;;;;;30.60;20.10;;;0.90;1.00;;;;;;5009136;28;20227;-81
2022/11/22 07:03:37;;;;;;;28.83;20.60;;;0.90;99.90;;;;;;5007568;28;20265;-76
2022/11/22 07:06:04;;;;;;;31.47;20.43;;;0.90;99.90;;;;;;5009121;28;20241;-77
2022/11/22 07:08:29;;;;;;;28.40;18.90;;;0.90;99.90;;;;;;5009331;28;20187;-77
2022/11/22 07:11:07;;;;;;;31.10;20.00;;;1.10;99.90;;;;;;5009473;28;20868;-79
2022/11/22 07:13:33;;;;;;;29.67;19.07;;;1.10;99.90;;;;;;5007676;28;20191;-78
2022/11/22 07:16:00;;;;;;;30.40;19.50;;;1.20;99.90;;;;;;5007044;28;20223;-79
2022/11/22 07:18:27;;;;;;;25.50;17.53;;;1.20;99.90;;;;;;5004168;28;20693;-79
2022/11/22 07:21:02;;;;;;;25.93;18.23;;;1.10;99.90;;;;;;5008818;28;20176;-80
2022/11/22 07:23:28;;;;;;;25.97;18.13;;;1.10;99.90;;;;;;5006530;28;20244;-80
2022/11/22 07:25:54;;;;;;;26.13;18.47;;;1.10;99.90;;;;;;5008631;28;21332;-80
2022/11/22 07:28:20;;;;;;;29.73;19.00;;;1.10;99.90;;;;;;5008607;28;20734;-78
2022/11/22 07:30:46;;;;;;;26.80;18.23;;;1.10;99.90;;;;;;5009184;28;20271;-79
2022/11/22 07:33:12;;;;;;;25.97;18.37;;;1.10;99.90;;;;;;5008708;28;20183;-79
2022/11/22 07:35:37;;;;;;;24.97;17.33;;;1.10;99.90;;;;;;5009370;28;20721;-80
2022/11/22 07:38:03;;;;;;;27.90;18.60;;;1.20;99.90;;;;;;5010332;28;20219;-80
2022/11/22 07:40:29;;;;;;;26.83;18.43;;;1.10;99.90;;;;;;5010391;28;20183;-81
2022/11/22 07:42:55;;;;;;;24.33;16.83;;;1.10;99.90;;;;;;5008089;28;20199;-81
2022/11/22 07:45:20;;;;;;;26.20;17.13;;;1.10;99.90;;;;;;5007844;28;20227;-80
2022/11/22 07:47:46;;;;;;;28.27;18.20;;;1.20;99.90;;;;;;5007910;28;20211;-81
2022/11/22 07:50:12;;;;;;;26.43;18.23;;;1.30;99.90;;;;;;5008432;28;20222;-78
2022/11/22 07:52:38;;;;;;;25.77;17.33;;;1.20;99.90;;;;;;5008991;28;20653;-81
2022/11/22 07:55:07;;;;;;;25.90;17.50;;;1.30;99.90;;;;;;5009310;28;20290;-80
2022/11/22 07:57:33;;;;;;;24.13;16.50;;;1.20;99.90;;;;;;5009129;28;20743;-81
2022/11/22 07:59:59;;;;;;;23.33;17.03;;;1.30;99.90;;;;;;5009046;28;20235;-80
2022/11/22 08:02:25;;;;;;;23.63;16.50;;;1.40;99.90;;;;;;5010521;28;20538;-80
2022/11/22 08:04:51;;;;;;;25.20;16.57;;;1.30;99.90;;;;;;5006557;28;20638;-79
2022/11/22 08:07:17;;;;;;;25.63;17.33;;;1.40;99.90;;;;;;5005578;28;20187;-80
2022/11/22 08:09:42;;;;;;;25.10;17.33;;;1.40;99.90;;;;;;5006508;28;20210;-80
2022/11/22 08:12:08;;;;;;;26.33;17.00;;;1.40;99.90;;;;;;5007231;28;20568;-80
2022/11/22 08:14:34;;;;;;;23.63;17.20;;;1.40;99.90;;;;;;5006725;28;20207;-79
2022/11/22 08:16:59;;;;;;;25.73;17.73;;;1.50;99.90;;;;;;5005040;28;20192;-78
2022/11/22 08:19:25;;;;;;;23.27;16.67;;;1.60;99.90;;;;;;5004556;28;20890;-81
2022/11/22 08:21:51;;;;;;;23.97;16.80;;;1.60;99.90;;;;;;5006757;28;20198;-79
2022/11/22 08:24:16;;;;;;;25.30;16.83;;;1.60;99.90;;;;;;5021392;28;20207;-79
2022/11/22 08:26:42;;;;;;;27.27;17.27;;;1.60;99.90;;;;;;5004765;28;20192;-79
2022/11/22 08:29:11;;;;;;;23.60;16.53;;;1.70;99.90;;;;;;5005060;28;20573;-79
2022/11/22 08:31:37;;;;;;;25.23;17.37;;;1.70;99.90;;;;;;5006680;28;20175;-78
2022/11/22 08:34:03;;;;;;;25.67;17.77;;;1.80;99.90;;;;;;5006754;28;20195;-79
2022/11/22 08:36:29;;;;;;;25.10;17.57;;;1.80;99.90;;;;;;5007527;28;20320;-79
2022/11/22 08:38:55;;;;;;;25.93;18.30;;;1.70;99.90;;;;;;5007813;28;20203;-80
2022/11/22 08:41:21;;;;;;;22.27;16.47;;;1.70;99.90;;;;;;5009435;28;20191;-79
2022/11/22 08:43:50;;;;;;;23.77;15.97;;;1.70;99.90;;;;;;5005695;28;20211;-80
2022/11/22 08:46:16;;;;;;;27.07;18.67;;;1.70;99.90;;;;;;5009858;28;20293;-79
2022/11/22 08:48:42;;;;;;;35.43;25.73;;;1.60;99.90;;;;;;5007564;28;20199;-79
2022/11/22 08:51:09;;;;;;;48.13;35.77;;;1.70;99.90;;;;;;5007009;28;20183;-82
2022/11/22 08:53:38;;;;;;;52.73;35.40;;;1.80;99.90;;;;;;5005508;28;20191;-81
2022/11/22 08:56:05;;;;;;;78.87;44.00;;;1.70;99.90;;;;;;5007943;28;20382;-80
2022/11/22 08:58:32;;;;;;;83.30;44.70;;;1.80;99.90;;;;;;5006950;28;20188;-78
2022/11/22 09:01:24;;;;;;;29.77;22.93;;;1.80;99.90;;;;;;5009364;28;20199;-80
2022/11/22 09:03:49;;;;;;;34.70;25.33;;;1.80;99.90;;;;;;5010075;28;20615;-80
2022/11/22 09:06:18;;;;;;;59.70;44.73;;;1.70;99.90;;;;;;5005850;28;20208;-78
2022/11/22 09:08:43;;;;;;;44.87;25.73;;;1.60;99.90;;;;;;5008491;28;20180;-79
2022/11/22 09:11:14;;;;;;;39.80;28.10;;;1.60;99.90;;;;;;5008362;28;20209;-81
2022/11/22 09:13:41;;;;;;;40.57;29.37;;;1.60;99.90;;;;;;5009969;28;20196;-81
2022/11/22 09:16:09;;;;;;;48.73;31.80;;;1.60;99.90;;;;;;5009817;28;20222;-80
2022/11/22 09:18:35;;;;;;;36.63;23.53;;;1.70;99.90;;;;;;5008658;28;20187;-80
2022/11/22 09:21:05;;;;;;;26.77;19.80;;;1.80;99.90;;;;;;5008595;28;20218;-80
2022/11/22 09:23:31;;;;;;;29.10;21.00;;;1.70;99.90;;;;;;5009091;28;20649;-79
2022/11/22 09:26:06;;;;;;;33.23;21.10;;;2.20;99.90;;;;;;5007276;28;20239;-79
2022/11/22 09:28:32;;;;;;;27.17;19.57;;;1.90;99.90;;;;;;5008252;28;20589;-78
2022/11/22 09:31:03;;;;;;;30.47;21.10;;;1.90;99.90;;;;;;5006637;28;20613;-81
2022/11/22 09:33:29;;;;;;;24.23;18.43;;;2.00;99.90;;;;;;5008214;28;20187;-81
2022/11/22 09:36:03;;;;;;;27.57;18.07;;;2.00;99.90;;;;;;5008449;28;20297;-80
2022/11/22 09:38:29;;;;;;;23.90;17.83;;;2.00;99.90;;;;;;5007519;28;20649;-79
2022/11/22 09:40:56;;;;;;;23.60;17.43;;;2.10;99.90;;;;;;5009087;28;20203;-80
2022/11/22 09:43:41;;;;;;;33.67;23.60;;;2.20;99.90;;;;;;5008369;28;20310;-80
2022/11/22 09:46:39;;;;;;;27.57;19.67;;;2.20;99.90;;;;;;5006088;28;20218;-81
2022/11/22 09:49:36;;;;;;;24.37;18.47;;;2.20;99.90;;;;;;5008112;28;20180;-81
2022/11/22 09:52:22;;;;;;;21.87;17.03;;;2.30;99.90;;;;;;5023624;28;20266;-80
2022/11/22 09:54:55;;;;;;;24.30;17.80;;;2.40;99.90;;;;;;5008157;28;20207;-79
2022/11/22 09:57:36;;;;;;;25.17;18.17;;;2.50;99.90;;;;;;5007740;28;20188;-80
2022/11/22 10:00:06;;;;;;;27.57;19.13;;;2.40;99.90;;;;;;5008273;28;21158;-80
2022/11/22 10:02:39;;;;;;;53.43;39.70;;;2.50;99.90;;;;;;5008091;28;20796;-81
2022/11/22 10:05:16;;;;;;;37.83;28.53;;;2.50;99.90;;;;;;5007978;28;20235;-82
2022/11/22 10:07:56;;;;;;;40.10;28.43;;;2.60;99.90;;;;;;5007220;28;20183;-80
2022/11/22 10:10:27;;;;;;;28.40;20.37;;;2.50;99.90;;;;;;5007864;28;20180;-79
2022/11/22 10:13:00;;;;;;;36.30;26.07;;;2.50;99.90;;;;;;5007749;28;20195;-80
2022/11/22 10:15:41;;;;;;;37.40;27.07;;;2.60;99.90;;;;;;5005213;28;20251;-79
2022/11/22 10:18:24;;;;;;;30.37;22.37;;;2.50;99.90;;;;;;5006926;28;20192;-79
2022/11/22 10:20:51;;;;;;;25.60;18.53;;;2.50;99.90;;;;;;5008057;28;20187;-79
2022/11/22 10:23:21;;;;;;;27.83;20.53;;;2.50;99.90;;;;;;5006403;28;20399;-80
2022/11/22 10:25:57;;;;;;;29.73;22.97;;;2.60;99.90;;;;;;5007411;28;20207;-80
2022/11/22 10:28:49;;;;;;;32.97;29.23;;;2.60;99.90;;;;;;5005511;28;20210;-81
2022/11/22 10:31:15;;;;;;;23.17;17.80;;;2.70;99.90;;;;;;5007035;28;20262;-80
2022/11/22 10:34:14;;;;;;;37.80;28.03;;;2.70;99.90;;;;;;5009840;28;20653;-81
2022/11/22 10:36:57;;;;;;;44.33;32.20;;;2.70;99.90;;;;;;5011219;28;20661;-81
2022/11/22 10:39:37;;;;;;;26.47;20.47;;;2.60;99.90;;;;;;5011940;28;20666;-81
2022/11/22 10:42:26;;;;;;;29.00;20.37;;;2.60;99.90;;;;;;5011068;28;20802;-80
2022/11/22 10:45:05;;;;;;;58.67;41.43;;;2.70;99.90;;;;;;5009003;28;20293;-81
2022/11/22 10:47:52;;;;;;;85.50;60.93;;;2.80;99.90;;;;;;5009391;28;20180;-80
2022/11/22 10:50:53;;;;;;;70.80;48.53;;;2.70;99.90;;;;;;5026701;28;20187;-83
2022/11/22 10:53:39;;;;;;;35.97;25.93;;;2.80;99.90;;;;;;5002128;28;20282;-78
2022/11/22 10:56:15;;;;;;;60.10;44.70;;;2.90;99.90;;;;;;5025014;28;20303;-82
2022/11/22 10:59:14;;;;;;;70.17;48.17;;;3.00;99.90;;;;;;5027847;28;20187;-81
2022/11/22 11:02:19;;;;;;;52.13;39.40;;;3.10;99.90;;;;;;5014016;28;20544;-79
2022/11/22 11:04:45;;;;;;;44.80;36.47;;;3.10;99.90;;;;;;5011473;28;20222;-80
2022/11/22 11:07:16;;;;;;;42.70;34.30;;;3.20;91.40;;;;;;5006938;28;20179;-79
2022/11/22 11:09:46;;;;;;;32.37;28.43;;;2.90;75.50;;;;;;5009319;28;20314;-80
2022/11/22 11:12:19;;;;;;;46.47;36.60;;;3.40;84.20;;;;;;5006607;28;20249;-82
2022/11/22 11:14:48;;;;;;;51.07;33.60;;;3.50;73.40;;;;;;5003955;28;20302;-80
2022/11/22 11:17:23;;;;;;;50.47;37.57;;;3.50;56.00;;;;;;5004408;28;20214;-79
2022/11/22 11:19:51;;;;;;;34.77;25.77;;;3.60;45.40;;;;;;5018868;28;20187;-80
2022/11/22 11:22:25;;;;;;;69.77;46.10;;;3.50;82.20;;;;;;5007308;28;20192;-80
2022/11/22 11:24:51;;;;;;;33.43;23.40;;;3.60;60.70;;;;;;5002420;28;20358;-77
2022/11/22 11:27:19;;;;;;;43.83;29.27;;;3.60;36.70;;;;;;5007813;28;20179;-80
2022/11/22 11:30:03;;;;;;;84.17;48.67;;;3.50;67.30;;;;;;5004159;28;20186;-78
2022/11/22 11:32:53;;;;;;;122.50;75.30;;;3.50;96.10;;;;;;5002222;28;20653;-80
2022/11/22 11:35:21;;;;;;;38.73;27.20;;;3.50;94.20;;;;;;5003768;28;20282;-79
2022/11/22 11:37:47;;;;;;;23.73;19.33;;;3.50;94.10;;;;;;5004535;28;20180;-79
2022/11/22 11:40:31;;;;;;;30.03;26.53;;;3.50;95.80;;;;;;5003835;28;20245;-81
2022/11/22 11:43:29;;;;;;;23.90;18.97;;;3.60;96.60;;;;;;5005092;28;20188;-80
2022/11/22 11:46:25;;;;;;;41.53;37.20;;;3.60;72.90;;;;;;4980700;28;20215;-81
2022/11/22 11:49:07;;;;;;;21.67;17.27;;;3.60;97.90;;;;;;5004203;28;20238;-81
2022/11/22 11:52:00;;;;;;;21.10;17.03;;;3.60;99.90;;;;;;5007436;28;20262;-81
2022/11/22 11:54:38;;;;;;;19.23;15.87;;;3.70;83.50;;;;;;5000615;28;20580;-79
2022/11/22 11:57:06;;;;;;;19.93;15.87;;;3.90;68.10;;;;;;5004102;28;20179;-80
2022/11/22 11:59:38;;;;;;;19.43;15.33;;;3.90;61.30;;;;;;5004586;28;20658;-80
2022/11/22 12:02:10;;;;;;;17.57;14.23;;;4.10;88.30;;;;;;5018957;28;20188;-79
2022/11/22 12:04:48;;;;;;;19.37;14.93;;;3.90;92.30;;;;;;5003580;28;20199;-80
2022/11/22 12:07:21;;;;;;;22.17;16.50;;;3.60;94.70;;;;;;5003921;28;20592;-79
2022/11/22 12:09:49;;;;;;;27.37;19.40;;;3.50;99.90;;;;;;5004118;28;20188;-80
2022/11/22 12:12:37;;;;;;;22.30;16.60;;;3.40;99.90;;;;;;5003052;28;20179;-80
2022/11/22 12:15:20;;;;;;;20.20;15.47;;;3.40;99.90;;;;;;5000999;28;20224;-79
2022/11/22 12:17:56;;;;;;;19.83;16.30;;;3.50;99.90;;;;;;5000862;28;20191;-78
2022/11/22 12:20:35;;;;;;;27.60;24.60;;;3.60;99.20;;;;;;4996584;28;20661;-81
2022/11/22 12:23:19;;;;;;;24.27;20.93;;;3.60;96.90;;;;;;4997225;28;20187;-80
2022/11/22 12:25:46;;;;;;;20.30;16.30;;;3.60;97.00;;;;;;5014930;28;20701;-80
2022/11/22 12:28:23;;;;;;;21.93;16.73;;;3.50;92.80;;;;;;4995240;28;20334;-79
2022/11/22 12:30:56;;;;;;;21.37;17.07;;;3.50;99.90;;;;;;5000075;28;20179;-78
2022/11/22 12:33:46;;;;;;;23.37;17.60;;;2.90;99.90;;;;;;5003417;28;20179;-80
2022/11/22 12:36:24;;;;;;;21.87;18.20;;;3.60;99.90;;;;;;5000897;28;20685;-79
2022/11/22 12:38:51;;;;;;;25.20;19.70;;;3.60;99.90;;;;;;5001625;28;20175;-81
2022/11/22 12:41:21;;;;;;;24.70;21.60;;;3.60;99.90;;;;;;5016366;28;20458;-78
2022/11/22 12:43:58;;;;;;;25.23;21.90;;;3.80;79.40;;;;;;5001141;28;20218;-78
2022/11/22 12:46:34;;;;;;;21.40;16.67;;;3.70;75.70;;;;;;5013657;28;20838;-80
2022/11/22 12:49:11;;;;;;;20.27;16.57;;;3.60;82.60;;;;;;5001539;28;20751;-79
2022/11/22 12:51:49;;;;;;;18.80;15.33;;;3.50;98.10;;;;;;4999679;28;20588;-77
2022/11/22 12:54:44;;;;;;;24.33;17.90;;;3.40;99.90;;;;;;5001462;28;21122;-77
2022/11/22 12:57:18;;;;;;;20.43;15.97;;;3.30;96.50;;;;;;4999763;28;20192;-79
2022/11/22 13:00:17;;;;;;;20.13;16.83;;;3.40;99.90;;;;;;5002551;28;20179;-79
2022/11/22 13:02:56;;;;;;;18.83;15.67;;;3.30;99.90;;;;;;5000747;28;20201;-77
2022/11/22 13:05:38;;;;;;;22.17;16.77;;;4.00;99.90;;;;;;5001969;28;20230;-78
2022/11/22 13:08:23;;;;;;;20.93;17.67;;;3.40;99.90;;;;;;5001784;28;20215;-79